メインページ
METAR-TAF:

METAR-TAF

空港 :

能登空港

輪島, 日本

緯度: 37-17-36N, 経度: 136-57-44E, 海抜: 219m

現時点の気象観測

当レポートは1時間56分前の10:00(UTC)に作成
北東の風 6kt
気温 11°C
湿度 82%
気圧 1021 hPa
視程10km以上
高度3000ftの雲はほとんどない
高度18000ftの雲は散在している
千切れ雲あり

METAR: RJNW 201000Z 05006KT 9999 FEW030 SCT180 BKN/// 11/08 Q1021

時間: 20:56 (11:56 UTC)


TAF: 見つかりません

4,000以上の空港の気象観測と天気予報(METAR報とTAF報)

利用可能な観測所は地図上に黄色い丸と赤い丸で示す。

丸の上にカーソルを重ねると観測所名を参照できる。

次にクリックすると気象観測と天気予報を参照できる。

マップの切り替え:黒色「×」印の緑ボタンをクリックして拡大、「-」印の緑ボタンをクリックして縮小、緑色の三角印をクリックして隣りの地図に切り替え


METAR-TAF: